sensor_id;sensor_type;location;lat;lon;timestamp;pressure;altitude;pressure_sealevel;temperature;humidity
35649;BME280;21768;48.562;13.414;2023-05-21T00:01:31;97172.53;;;19.83;58.88
35649;BME280;21768;48.562;13.414;2023-05-21T00:03:56;97165.69;;;19.82;59.00
35649;BME280;21768;48.562;13.414;2023-05-21T00:06:23;97164.81;;;19.82;59.12
35649;BME280;21768;48.562;13.414;2023-05-21T00:08:49;97164.78;;;19.80;58.85
35649;BME280;21768;48.562;13.414;2023-05-21T00:11:14;97162.16;;;19.77;59.14
35649;BME280;21768;48.562;13.414;2023-05-21T00:13:40;97160.41;;;19.75;59.27
35649;BME280;21768;48.562;13.414;2023-05-21T00:16:06;97159.50;;;19.73;59.13
35649;BME280;21768;48.562;13.414;2023-05-21T00:18:31;97161.94;;;19.68;58.96
35649;BME280;21768;48.562;13.414;2023-05-21T00:20:58;97163.50;;;19.63;59.16
35649;BME280;21768;48.562;13.414;2023-05-21T00:23:24;97163.41;;;19.60;59.13
35649;BME280;21768;48.562;13.414;2023-05-21T00:25:51;97159.94;;;19.58;59.31
35649;BME280;21768;48.562;13.414;2023-05-21T00:28:17;97159.09;;;19.57;59.18
35649;BME280;21768;48.562;13.414;2023-05-21T00:30:42;97156.56;;;19.59;59.17
35649;BME280;21768;48.562;13.414;2023-05-21T00:33:08;97153.13;;;19.58;59.22
35649;BME280;21768;48.562;13.414;2023-05-21T00:35:37;97153.09;;;19.57;59.32
35649;BME280;21768;48.562;13.414;2023-05-21T00:38:03;97152.22;;;19.55;59.35
35649;BME280;21768;48.562;13.414;2023-05-21T00:40:29;97156.47;;;19.54;59.49
35649;BME280;21768;48.562;13.414;2023-05-21T00:42:55;97152.19;;;19.53;59.39
35649;BME280;21768;48.562;13.414;2023-05-21T00:45:21;97150.44;;;19.52;59.25
35649;BME280;21768;48.562;13.414;2023-05-21T00:47:48;97143.47;;;19.48;59.34
35649;BME280;21768;48.562;13.414;2023-05-21T00:50:19;97140.00;;;19.46;59.29
35649;BME280;21768;48.562;13.414;2023-05-21T00:52:45;97150.06;;;19.40;59.65
35649;BME280;21768;48.562;13.414;2023-05-21T00:55:11;97139.72;;;19.35;59.61
35649;BME280;21768;48.562;13.414;2023-05-21T00:57:36;97140.53;;;19.34;59.85
35649;BME280;21768;48.562;13.414;2023-05-21T01:00:04;97139.66;;;19.34;59.72
35649;BME280;21768;48.562;13.414;2023-05-21T01:02:34;97143.00;;;19.31;59.75
35649;BME280;21768;48.562;13.414;2023-05-21T01:05:01;97134.38;;;19.26;59.82
35649;BME280;21768;48.562;13.414;2023-05-21T01:07:28;97139.44;;;19.25;59.93
35649;BME280;21768;48.562;13.414;2023-05-21T01:09:54;97135.09;;;19.22;59.92
35649;BME280;21768;48.562;13.414;2023-05-21T01:12:19;97133.28;;;19.18;59.98
35649;BME280;21768;48.562;13.414;2023-05-21T01:14:46;97143.44;;;19.15;60.21
35649;BME280;21768;48.562;13.414;2023-05-21T01:17:12;97133.06;;;19.11;60.16
35649;BME280;21768;48.562;13.414;2023-05-21T01:19:37;97138.13;;;19.09;60.15
35649;BME280;21768;48.562;13.414;2023-05-21T01:22:06;97136.31;;;19.03;60.94
35649;BME280;21768;48.562;13.414;2023-05-21T01:24:32;97130.94;;;18.94;60.71
35649;BME280;21768;48.562;13.414;2023-05-21T01:26:59;97132.53;;;18.91;61.00
35649;BME280;21768;48.562;13.414;2023-05-21T01:29:25;97138.28;;;18.84;61.37
35649;BME280;21768;48.562;13.414;2023-05-21T01:34:24;97134.38;;;18.66;62.19
35649;BME280;21768;48.562;13.414;2023-05-21T01:37:09;97139.31;;;18.60;62.02
35649;BME280;21768;48.562;13.414;2023-05-21T01:39:38;97137.38;;;18.53;62.35
35649;BME280;21768;48.562;13.414;2023-05-21T01:42:08;97139.75;;;18.47;62.46
35649;BME280;21768;48.562;13.414;2023-05-21T01:44:35;97133.59;;;18.41;62.69
35649;BME280;21768;48.562;13.414;2023-05-21T01:47:02;97137.63;;;18.34;63.22
35649;BME280;21768;48.562;13.414;2023-05-21T01:49:29;97142.69;;;18.31;63.12
35649;BME280;21768;48.562;13.414;2023-05-21T01:51:55;97140.84;;;18.27;63.31
35649;BME280;21768;48.562;13.414;2023-05-21T01:54:20;97141.50;;;18.21;63.56
35649;BME280;21768;48.562;13.414;2023-05-21T01:56:47;97131.97;;;18.16;63.82
35649;BME280;21768;48.562;13.414;2023-05-21T01:59:14;97132.69;;;18.12;64.01
35649;BME280;21768;48.562;13.414;2023-05-21T02:01:39;97126.56;;;18.07;64.13
35649;BME280;21768;48.562;13.414;2023-05-21T02:04:04;97117.97;;;18.03;64.32
35649;BME280;21768;48.562;13.414;2023-05-21T02:06:30;97119.50;;;17.98;64.49
35649;BME280;21768;48.562;13.414;2023-05-21T02:08:56;97126.28;;;17.97;64.18
35649;BME280;21768;48.562;13.414;2023-05-21T02:11:22;97126.50;;;18.04;63.93
35649;BME280;21768;48.562;13.414;2023-05-21T02:13:47;97122.31;;;18.06;63.65
35649;BME280;21768;48.562;13.414;2023-05-21T02:16:13;97130.91;;;18.09;63.71
35649;BME280;21768;48.562;13.414;2023-05-21T02:18:40;97121.50;;;18.08;63.70
35649;BME280;21768;48.562;13.414;2023-05-21T02:21:08;97120.63;;;18.08;63.32
35649;BME280;21768;48.562;13.414;2023-05-21T02:23:35;97117.28;;;18.09;63.29
35649;BME280;21768;48.562;13.414;2023-05-21T02:26:02;97122.44;;;18.10;63.33
35649;BME280;21768;48.562;13.414;2023-05-21T02:28:27;97124.31;;;18.16;62.77
35649;BME280;21768;48.562;13.414;2023-05-21T02:30:54;97119.28;;;18.19;62.71
35649;BME280;21768;48.562;13.414;2023-05-21T02:33:20;97124.50;;;18.22;62.58
35649;BME280;21768;48.562;13.414;2023-05-21T02:35:46;97122.00;;;18.23;62.53
35649;BME280;21768;48.562;13.414;2023-05-21T02:38:12;97122.00;;;18.23;62.66
35649;BME280;21768;48.562;13.414;2023-05-21T02:40:38;97110.00;;;18.21;62.64
35649;BME280;21768;48.562;13.414;2023-05-21T02:43:04;97113.38;;;18.20;62.34
35649;BME280;21768;48.562;13.414;2023-05-21T02:45:29;97104.78;;;18.18;63.00
35649;BME280;21768;48.562;13.414;2023-05-21T02:47:54;97108.06;;;18.14;62.94
35649;BME280;21768;48.562;13.414;2023-05-21T02:50:20;97100.41;;;18.14;62.99
35649;BME280;21768;48.562;13.414;2023-05-21T02:52:47;97106.44;;;18.16;62.55
35649;BME280;21768;48.562;13.414;2023-05-21T02:55:12;97092.03;;;18.18;62.46
35649;BME280;21768;48.562;13.414;2023-05-21T02:57:38;97094.56;;;18.18;62.16
35649;BME280;21768;48.562;13.414;2023-05-21T03:00:03;97094.56;;;18.18;62.29
35649;BME280;21768;48.562;13.414;2023-05-21T03:02:30;97094.56;;;18.18;62.00
35649;BME280;21768;48.562;13.414;2023-05-21T03:04:56;97097.94;;;18.17;61.91
35649;BME280;21768;48.562;13.414;2023-05-21T03:07:21;97100.56;;;18.18;61.78
35649;BME280;21768;48.562;13.414;2023-05-21T03:09:48;97098.88;;;18.19;61.75
35649;BME280;21768;48.562;13.414;2023-05-21T03:12:13;97099.69;;;18.18;61.66
35649;BME280;21768;48.562;13.414;2023-05-21T03:14:39;97093.66;;;18.16;61.99
35649;BME280;21768;48.562;13.414;2023-05-21T03:17:08;97092.66;;;18.11;62.13
35649;BME280;21768;48.562;13.414;2023-05-21T03:19:38;97090.91;;;18.10;61.87
35649;BME280;21768;48.562;13.414;2023-05-21T03:22:04;97096.84;;;18.09;61.67
35649;BME280;21768;48.562;13.414;2023-05-21T03:24:30;97089.19;;;18.09;62.04
35649;BME280;21768;48.562;13.414;2023-05-21T03:27:00;97089.94;;;18.05;61.65
35649;BME280;21768;48.562;13.414;2023-05-21T03:29:26;97089.78;;;18.00;61.80
35649;BME280;21768;48.562;13.414;2023-05-21T03:31:52;97084.63;;;17.98;62.26
35649;BME280;21768;48.562;13.414;2023-05-21T03:34:18;97090.50;;;17.96;62.61
35649;BME280;21768;48.562;13.414;2023-05-21T03:36:47;97091.13;;;17.89;62.78
35649;BME280;21768;48.562;13.414;2023-05-21T03:39:13;97087.44;;;17.79;62.96
35649;BME280;21768;48.562;13.414;2023-05-21T03:41:38;97092.53;;;17.79;62.73
35649;BME280;21768;48.562;13.414;2023-05-21T03:44:04;97087.38;;;17.78;62.79
35649;BME280;21768;48.562;13.414;2023-05-21T03:46:29;97089.88;;;17.76;63.12
35649;BME280;21768;48.562;13.414;2023-05-21T03:48:55;97094.88;;;17.73;63.22
35649;BME280;21768;48.562;13.414;2023-05-21T03:51:22;97089.69;;;17.70;63.55
35649;BME280;21768;48.562;13.414;2023-05-21T03:53:49;97094.53;;;17.64;63.71
35649;BME280;21768;48.562;13.414;2023-05-21T03:56:15;97088.47;;;17.60;64.07
35649;BME280;21768;48.562;13.414;2023-05-21T03:58:41;97094.31;;;17.56;63.84
35649;BME280;21768;48.562;13.414;2023-05-21T04:01:06;97097.75;;;17.57;63.75
35649;BME280;21768;48.562;13.414;2023-05-21T04:03:33;97094.34;;;17.58;63.94
35649;BME280;21768;48.562;13.414;2023-05-21T04:06:00;97095.22;;;17.58;64.13
35649;BME280;21768;48.562;13.414;2023-05-21T04:08:25;97096.22;;;17.63;63.97
35649;BME280;21768;48.562;13.414;2023-05-21T04:10:51;97094.03;;;17.73;62.94
35649;BME280;21768;48.562;13.414;2023-05-21T04:13:16;97097.75;;;17.84;62.93
35649;BME280;21768;48.562;13.414;2023-05-21T04:15:42;97099.59;;;17.88;62.68
35649;BME280;21768;48.562;13.414;2023-05-21T04:18:08;97094.78;;;17.97;62.28
35649;BME280;21768;48.562;13.414;2023-05-21T04:20:35;97098.38;;;18.02;62.23
35649;BME280;21768;48.562;13.414;2023-05-21T04:23:00;97105.31;;;18.06;62.90
35649;BME280;21768;48.562;13.414;2023-05-21T04:25:27;97100.22;;;18.08;63.24
35649;BME280;21768;48.562;13.414;2023-05-21T04:27:52;97100.41;;;18.14;63.50
35649;BME280;21768;48.562;13.414;2023-05-21T04:30:18;97113.31;;;18.18;63.16
35649;BME280;21768;48.562;13.414;2023-05-21T04:32:44;97105.91;;;18.26;62.69
35649;BME280;21768;48.562;13.414;2023-05-21T04:35:10;97101.75;;;18.29;63.00
35649;BME280;21768;48.562;13.414;2023-05-21T04:37:36;97103.69;;;18.38;62.37
35649;BME280;21768;48.562;13.414;2023-05-21T04:40:07;97108.31;;;18.50;62.24
35649;BME280;21768;48.562;13.414;2023-05-21T04:42:33;97112.97;;;18.63;61.04
35649;BME280;21768;48.562;13.414;2023-05-21T04:44:58;97110.13;;;18.82;61.32
35649;BME280;21768;48.562;13.414;2023-05-21T04:47:24;97110.59;;;18.99;60.85
35649;BME280;21768;48.562;13.414;2023-05-21T04:49:49;97110.22;;;19.17;59.89
35649;BME280;21768;48.562;13.414;2023-05-21T04:52:15;97117.47;;;19.33;59.73
35649;BME280;21768;48.562;13.414;2023-05-21T04:54:41;97117.88;;;19.48;59.29
35649;BME280;21768;48.562;13.414;2023-05-21T04:57:07;97119.00;;;19.58;59.70
35649;BME280;21768;48.562;13.414;2023-05-21T04:59:33;97120.97;;;19.68;58.58
35649;BME280;21768;48.562;13.414;2023-05-21T05:01:59;97119.56;;;19.79;59.09
35649;BME280;21768;48.562;13.414;2023-05-21T05:04:24;97124.78;;;19.85;60.62
35649;BME280;21768;48.562;13.414;2023-05-21T05:06:50;97123.16;;;19.87;59.67
35649;BME280;21768;48.562;13.414;2023-05-21T05:09:16;97112.97;;;19.90;58.79
35649;BME280;21768;48.562;13.414;2023-05-21T05:11:42;97113.16;;;19.98;58.64
35649;BME280;21768;48.562;13.414;2023-05-21T05:14:07;97108.28;;;20.09;58.01
35649;BME280;21768;48.562;13.414;2023-05-21T05:16:33;97113.75;;;20.24;56.83
35649;BME280;21768;48.562;13.414;2023-05-21T05:18:59;97115.69;;;20.34;56.97
35649;BME280;21768;48.562;13.414;2023-05-21T05:21:25;97112.56;;;20.46;56.87
35649;BME280;21768;48.562;13.414;2023-05-21T05:23:50;97111.06;;;20.55;56.51
35649;BME280;21768;48.562;13.414;2023-05-21T05:26:16;97111.31;;;20.67;56.54
35649;BME280;21768;48.562;13.414;2023-05-21T05:28:41;97117.63;;;20.83;55.62
35649;BME280;21768;48.562;13.414;2023-05-21T05:31:07;97106.00;;;21.00;55.05
35649;BME280;21768;48.562;13.414;2023-05-21T05:33:33;97113.22;;;21.20;55.49
35649;BME280;21768;48.562;13.414;2023-05-21T05:35:58;97114.31;;;21.32;54.63
35649;BME280;21768;48.562;13.414;2023-05-21T05:38:24;97110.28;;;21.45;53.33
35649;BME280;21768;48.562;13.414;2023-05-21T05:40:50;97111.28;;;21.55;53.55
35649;BME280;21768;48.562;13.414;2023-05-21T05:43:15;97108.97;;;21.67;53.16
35649;BME280;21768;48.562;13.414;2023-05-21T05:45:41;97107.38;;;21.75;51.90
35649;BME280;21768;48.562;13.414;2023-05-21T05:48:06;97107.44;;;21.80;51.32
35649;BME280;21768;48.562;13.414;2023-05-21T05:50:32;97111.88;;;21.88;51.43
35649;BME280;21768;48.562;13.414;2023-05-21T05:52:57;97110.41;;;22.02;50.79
35649;BME280;21768;48.562;13.414;2023-05-21T05:55:22;97105.41;;;22.12;50.57
35649;BME280;21768;48.562;13.414;2023-05-21T05:57:49;97099.47;;;22.16;50.19
35649;BME280;21768;48.562;13.414;2023-05-21T06:00:15;97107.25;;;22.19;49.82
35649;BME280;21768;48.562;13.414;2023-05-21T06:02:41;97111.50;;;22.17;49.69
35649;BME280;21768;48.562;13.414;2023-05-21T06:05:07;97107.25;;;22.19;49.57
35649;BME280;21768;48.562;13.414;2023-05-21T06:07:34;97115.00;;;22.22;49.32
35649;BME280;21768;48.562;13.414;2023-05-21T06:09:59;97113.38;;;22.27;49.97
35649;BME280;21768;48.562;13.414;2023-05-21T06:12:25;97110.88;;;22.33;49.59
35649;BME280;21768;48.562;13.414;2023-05-21T06:14:50;97114.44;;;22.43;49.80
35649;BME280;21768;48.562;13.414;2023-05-21T06:17:16;97110.25;;;22.49;49.65
35649;BME280;21768;48.562;13.414;2023-05-21T06:19:41;97112.06;;;22.58;49.25
35649;BME280;21768;48.562;13.414;2023-05-21T06:22:07;97116.44;;;22.63;49.70
35649;BME280;21768;48.562;13.414;2023-05-21T06:24:32;97113.84;;;22.62;49.10
35649;BME280;21768;48.562;13.414;2023-05-21T06:26:57;97113.84;;;22.62;48.82
35649;BME280;21768;48.562;13.414;2023-05-21T06:29:23;97119.75;;;22.56;49.05
35649;BME280;21768;48.562;13.414;2023-05-21T06:31:48;97114.66;;;22.59;49.13
35649;BME280;21768;48.562;13.414;2023-05-21T06:34:13;97112.09;;;22.61;48.30
35649;BME280;21768;48.562;13.414;2023-05-21T06:36:39;97116.44;;;22.63;47.83
35649;BME280;21768;48.562;13.414;2023-05-21T06:39:05;97116.47;;;22.66;48.19
35649;BME280;21768;48.562;13.414;2023-05-21T06:41:30;97118.34;;;22.77;48.40
35649;BME280;21768;48.562;13.414;2023-05-21T06:43:55;97116.69;;;22.82;48.21
35649;BME280;21768;48.562;13.414;2023-05-21T06:46:21;97112.50;;;22.88;48.28
35649;BME280;21768;48.562;13.414;2023-05-21T06:48:46;97115.22;;;22.99;47.67
35649;BME280;21768;48.562;13.414;2023-05-21T06:51:12;97117.81;;;23.03;47.32
35649;BME280;21768;48.562;13.414;2023-05-21T06:53:37;97123.06;;;23.11;47.44
35649;BME280;21768;48.562;13.414;2023-05-21T06:56:03;97125.78;;;23.25;47.86
35649;BME280;21768;48.562;13.414;2023-05-21T06:58:28;97114.72;;;23.35;46.61
35649;BME280;21768;48.562;13.414;2023-05-21T07:00:59;97119.00;;;23.33;46.56
35649;BME280;21768;48.562;13.414;2023-05-21T07:03:25;97117.38;;;23.42;46.05
35649;BME280;21768;48.562;13.414;2023-05-21T07:05:51;97124.41;;;23.56;46.71
35649;BME280;21768;48.562;13.414;2023-05-21T07:08:17;97119.41;;;23.71;46.54
35649;BME280;21768;48.562;13.414;2023-05-21T07:10:44;97123.78;;;23.81;45.75
35649;BME280;21768;48.562;13.414;2023-05-21T07:13:10;97113.47;;;23.83;46.37
35649;BME280;21768;48.562;13.414;2023-05-21T07:15:35;97110.97;;;23.90;45.48
35649;BME280;21768;48.562;13.414;2023-05-21T07:18:01;97119.63;;;24.01;45.97
35649;BME280;21768;48.562;13.414;2023-05-21T07:20:26;97113.69;;;24.08;45.53
35649;BME280;21768;48.562;13.414;2023-05-21T07:22:51;97114.63;;;24.17;45.27
35649;BME280;21768;48.562;13.414;2023-05-21T07:25:17;97112.13;;;24.27;44.83
35649;BME280;21768;48.562;13.414;2023-05-21T07:27:42;97108.72;;;24.31;44.58
35649;BME280;21768;48.562;13.414;2023-05-21T07:30:08;97112.16;;;24.33;44.88
35649;BME280;21768;48.562;13.414;2023-05-21T07:32:34;97106.94;;;24.26;44.43
35649;BME280;21768;48.562;13.414;2023-05-21T07:34:59;97100.06;;;24.23;44.37
35649;BME280;21768;48.562;13.414;2023-05-21T07:37:26;97104.31;;;24.20;44.36
35649;BME280;21768;48.562;13.414;2023-05-21T07:39:52;97102.53;;;24.13;44.24
35649;BME280;21768;48.562;13.414;2023-05-21T07:42:18;97103.47;;;24.19;44.82
35649;BME280;21768;48.562;13.414;2023-05-21T07:44:43;97100.00;;;24.17;44.41
35649;BME280;21768;48.562;13.414;2023-05-21T07:47:08;97093.97;;;24.14;43.91
35649;BME280;21768;48.562;13.414;2023-05-21T07:49:34;97096.47;;;24.06;44.05
35649;BME280;21768;48.562;13.414;2023-05-21T07:51:59;97093.03;;;24.04;44.02
35649;BME280;21768;48.562;13.414;2023-05-21T07:54:25;97099.13;;;24.14;44.47
35649;BME280;21768;48.562;13.414;2023-05-21T07:56:50;97096.63;;;24.26;45.02
35649;BME280;21768;48.562;13.414;2023-05-21T07:59:15;97095.91;;;24.42;44.18
35649;BME280;21768;48.562;13.414;2023-05-21T08:01:41;97097.69;;;24.58;43.18
35649;BME280;21768;48.562;13.414;2023-05-21T08:04:07;97084.88;;;24.78;42.35
35649;BME280;21768;48.562;13.414;2023-05-21T08:06:33;97096.09;;;24.88;41.67
35649;BME280;21768;48.562;13.414;2023-05-21T08:09:01;97089.25;;;24.91;41.46
35649;BME280;21768;48.562;13.414;2023-05-21T08:11:27;97085.84;;;24.97;40.66
35649;BME280;21768;48.562;13.414;2023-05-21T08:13:53;97091.81;;;24.91;41.09
35649;BME280;21768;48.562;13.414;2023-05-21T08:16:19;97090.97;;;24.94;41.49
35649;BME280;21768;48.562;13.414;2023-05-21T08:18:45;97087.59;;;25.05;41.01
35649;BME280;21768;48.562;13.414;2023-05-21T08:21:10;97082.47;;;25.16;40.66
35649;BME280;21768;48.562;13.414;2023-05-21T08:23:36;97094.53;;;25.22;40.28
35649;BME280;21768;48.562;13.414;2023-05-21T08:26:02;97089.34;;;25.17;40.09
35649;BME280;21768;48.562;13.414;2023-05-21T08:28:28;97096.25;;;25.24;40.76
35649;BME280;21768;48.562;13.414;2023-05-21T08:30:54;97091.97;;;25.31;40.45
35649;BME280;21768;48.562;13.414;2023-05-21T08:33:19;97089.41;;;25.45;39.88
35649;BME280;21768;48.562;13.414;2023-05-21T08:35:45;97092.06;;;25.69;40.55
35649;BME280;21768;48.562;13.414;2023-05-21T08:38:10;97086.00;;;25.81;39.36
35649;BME280;21768;48.562;13.414;2023-05-21T08:40:35;97079.09;;;26.02;38.38
35649;BME280;21768;48.562;13.414;2023-05-21T08:43:01;97088.53;;;26.28;39.91
35649;BME280;21768;48.562;13.414;2023-05-21T08:45:30;97089.31;;;26.75;36.44
35649;BME280;21768;48.562;13.414;2023-05-21T08:48:01;97078.63;;;27.46;36.28
35649;BME280;21768;48.562;13.414;2023-05-21T08:50:28;97075.25;;;28.41;34.14
35649;BME280;21768;48.562;13.414;2023-05-21T08:52:53;97076.72;;;28.65;32.69
35649;BME280;21768;48.562;13.414;2023-05-21T08:55:20;97072.13;;;28.89;32.42
35649;BME280;21768;48.562;13.414;2023-05-21T08:57:46;97078.69;;;29.17;31.91
35649;BME280;21768;48.562;13.414;2023-05-21T09:00:12;97080.84;;;29.48;31.48
35649;BME280;21768;48.562;13.414;2023-05-21T09:02:38;97089.94;;;30.30;30.02
35649;BME280;21768;48.562;13.414;2023-05-21T09:05:08;97083.06;;;30.26;29.53
35649;BME280;21768;48.562;13.414;2023-05-21T09:07:55;97084.97;;;30.18;30.60
35649;BME280;21768;48.562;13.414;2023-05-21T09:10:25;97079.97;;;30.04;30.19
35649;BME280;21768;48.562;13.414;2023-05-21T09:12:53;97074.06;;;29.94;30.33
35649;BME280;21768;48.562;13.414;2023-05-21T09:15:19;97076.97;;;29.74;31.43
35649;BME280;21768;48.562;13.414;2023-05-21T09:17:45;97078.88;;;29.65;30.39
35649;BME280;21768;48.562;13.414;2023-05-21T09:20:13;97079.00;;;29.56;31.08
35649;BME280;21768;48.562;13.414;2023-05-21T09:22:43;97078.03;;;29.63;30.72
35649;BME280;21768;48.562;13.414;2023-05-21T09:25:10;97081.44;;;29.68;30.49
35649;BME280;21768;48.562;13.414;2023-05-21T09:27:36;97080.72;;;29.58;31.57
35649;BME280;21768;48.562;13.414;2023-05-21T09:30:03;97077.00;;;29.71;29.46
35649;BME280;21768;48.562;13.414;2023-05-21T09:32:28;97084.66;;;29.82;30.09
35649;BME280;21768;48.562;13.414;2023-05-21T09:34:54;97075.19;;;30.29;29.26
35649;BME280;21768;48.562;13.414;2023-05-21T09:37:19;97085.91;;;31.04;28.82
35649;BME280;21768;48.562;13.414;2023-05-21T09:39:47;97083.03;;;31.57;28.32
35649;BME280;21768;48.562;13.414;2023-05-21T09:42:12;97088.34;;;32.25;27.53
35649;BME280;21768;48.562;13.414;2023-05-21T09:44:42;97086.28;;;33.30;26.49
35649;BME280;21768;48.562;13.414;2023-05-21T09:47:07;97079.69;;;33.46;25.58
35649;BME280;21768;48.562;13.414;2023-05-21T09:49:35;97077.97;;;32.87;25.71
35649;BME280;21768;48.562;13.414;2023-05-21T09:52:01;97086.09;;;33.07;25.62
35649;BME280;21768;48.562;13.414;2023-05-21T09:54:31;97093.00;;;33.09;24.85
35649;BME280;21768;48.562;13.414;2023-05-21T09:57:00;97080.72;;;32.82;25.09
35649;BME280;21768;48.562;13.414;2023-05-21T09:59:35;97083.81;;;32.64;26.31
35649;BME280;21768;48.562;13.414;2023-05-21T10:02:01;97081.22;;;32.95;25.50
35649;BME280;21768;48.562;13.414;2023-05-21T10:04:27;97078.03;;;32.85;25.17
35649;BME280;21768;48.562;13.414;2023-05-21T10:06:55;97074.22;;;32.64;24.61
35649;BME280;21768;48.562;13.414;2023-05-21T10:09:22;97081.09;;;32.36;25.68
35649;BME280;21768;48.562;13.414;2023-05-21T10:11:48;97081.03;;;32.39;25.60
35649;BME280;21768;48.562;13.414;2023-05-21T10:14:19;97077.84;;;32.59;25.63
35649;BME280;21768;48.562;13.414;2023-05-21T10:16:47;97075.06;;;33.27;24.51
35649;BME280;21768;48.562;13.414;2023-05-21T10:19:14;97084.44;;;33.90;23.93
35649;BME280;21768;48.562;13.414;2023-05-21T10:21:40;97089.97;;;34.58;23.44
35649;BME280;21768;48.562;13.414;2023-05-21T10:24:07;97075.53;;;35.18;22.53
35649;BME280;21768;48.562;13.414;2023-05-21T10:26:33;97077.28;;;35.18;22.00
35649;BME280;21768;48.562;13.414;2023-05-21T10:29:01;97071.63;;;35.95;21.62
35649;BME280;21768;48.562;13.414;2023-05-21T10:31:27;97071.66;;;36.56;21.13
35649;BME280;21768;48.562;13.414;2023-05-21T10:33:53;97066.06;;;37.03;20.58
35649;BME280;21768;48.562;13.414;2023-05-21T10:36:19;97062.53;;;37.23;20.55
35649;BME280;21768;48.562;13.414;2023-05-21T10:38:46;97072.75;;;38.02;19.86
35649;BME280;21768;48.562;13.414;2023-05-21T10:41:14;97063.03;;;38.37;18.72
35649;BME280;21768;48.562;13.414;2023-05-21T11:00:48;97051.91;;;41.09;16.10
35649;BME280;21768;48.562;13.414;2023-05-21T11:03:15;97050.72;;;40.87;16.74
35649;BME280;21768;48.562;13.414;2023-05-21T11:05:53;97053.78;;;38.81;17.54
35649;BME280;21768;48.562;13.414;2023-05-21T11:10:54;97041.91;;;35.06;21.13
35649;BME280;21768;48.562;13.414;2023-05-21T11:13:22;97046.13;;;33.87;22.46
35649;BME280;21768;48.562;13.414;2023-05-21T11:21:13;97036.19;;;31.88;24.85
35649;BME280;21768;48.562;13.414;2023-05-21T11:23:59;97041.38;;;31.52;24.84
35649;BME280;21768;48.562;13.414;2023-05-21T11:26:57;97039.34;;;31.28;26.25
35649;BME280;21768;48.562;13.414;2023-05-21T11:29:14;97028.19;;;31.21;24.96
35649;BME280;21768;48.562;13.414;2023-05-21T11:31:58;97028.44;;;31.09;25.28
35649;BME280;21768;48.562;13.414;2023-05-21T11:34:44;97037.56;;;30.90;25.98
35649;BME280;21768;48.562;13.414;2023-05-21T11:39:48;97043.09;;;30.74;26.14
35649;BME280;21768;48.562;13.414;2023-05-21T11:42:34;97038.53;;;30.41;25.71
35649;BME280;21768;48.562;13.414;2023-05-21T11:45:03;97041.28;;;30.33;27.58
35649;BME280;21768;48.562;13.414;2023-05-21T11:47:29;97035.16;;;30.36;27.08
35649;BME280;21768;48.562;13.414;2023-05-21T11:49:58;97033.31;;;30.41;27.14
35649;BME280;21768;48.562;13.414;2023-05-21T11:52:27;97038.53;;;30.41;26.95
35649;BME280;21768;48.562;13.414;2023-05-21T11:54:53;97043.06;;;30.30;27.59
35649;BME280;21768;48.562;13.414;2023-05-21T11:57:28;97037.13;;;30.22;26.17
35649;BME280;21768;48.562;13.414;2023-05-21T11:59:58;97032.22;;;30.06;27.14
35649;BME280;21768;48.562;13.414;2023-05-21T12:02:25;97025.56;;;29.90;27.85
35649;BME280;21768;48.562;13.414;2023-05-21T12:04:53;97026.41;;;29.91;27.21
35649;BME280;21768;48.562;13.414;2023-05-21T12:07:25;97029.94;;;29.88;27.45
35649;BME280;21768;48.562;13.414;2023-05-21T12:09:52;97028.06;;;29.95;26.70
35649;BME280;21768;48.562;13.414;2023-05-21T12:12:20;97016.06;;;29.88;27.45
35649;BME280;21768;48.562;13.414;2023-05-21T12:14:48;97026.47;;;29.88;27.59
35649;BME280;21768;48.562;13.414;2023-05-21T12:17:15;97032.44;;;29.94;27.24
35649;BME280;21768;48.562;13.414;2023-05-21T12:19:41;97031.34;;;30.07;27.93
35649;BME280;21768;48.562;13.414;2023-05-21T12:22:07;97024.63;;;29.94;27.31
35649;BME280;21768;48.562;13.414;2023-05-21T12:24:33;97033.53;;;29.79;27.03
35649;BME280;21768;48.562;13.414;2023-05-21T12:27:00;97024.03;;;29.77;27.50
35649;BME280;21768;48.562;13.414;2023-05-21T12:29:27;97023.00;;;29.87;27.21
35649;BME280;21768;48.562;13.414;2023-05-21T12:31:57;97023.88;;;29.86;27.04
35649;BME280;21768;48.562;13.414;2023-05-21T12:34:42;97013.56;;;29.80;27.18
35649;BME280;21768;48.562;13.414;2023-05-21T12:39:42;97025.41;;;29.96;26.87
35649;BME280;21768;48.562;13.414;2023-05-21T12:42:08;97012.53;;;29.92;26.61
35649;BME280;21768;48.562;13.414;2023-05-21T12:44:33;97012.56;;;29.89;27.33
35649;BME280;21768;48.562;13.414;2023-05-21T12:46:59;97015.09;;;29.93;27.45
35649;BME280;21768;48.562;13.414;2023-05-21T12:49:37;97018.44;;;30.01;27.35
35649;BME280;21768;48.562;13.414;2023-05-21T12:52:04;97015.72;;;30.07;27.33
35649;BME280;21768;48.562;13.414;2023-05-21T12:54:34;97016.56;;;30.09;26.85
35649;BME280;21768;48.562;13.414;2023-05-21T12:59:55;97006.31;;;29.97;27.25
35649;BME280;21768;48.562;13.414;2023-05-21T13:02:24;97014.00;;;30.06;27.11
35649;BME280;21768;48.562;13.414;2023-05-21T13:05:01;97005.34;;;30.06;27.24
35649;BME280;21768;48.562;13.414;2023-05-21T13:07:31;97000.94;;;30.09;26.74
35649;BME280;21768;48.562;13.414;2023-05-21T13:09:57;97007.88;;;30.10;25.20
35649;BME280;21768;48.562;13.414;2023-05-21T13:12:27;97013.44;;;29.89;26.39
35649;BME280;21768;48.562;13.414;2023-05-21T13:14:57;97004.59;;;29.99;26.88
35649;BME280;21768;48.562;13.414;2023-05-21T13:17:24;97000.88;;;30.13;26.45
35649;BME280;21768;48.562;13.414;2023-05-21T13:20:09;96997.38;;;30.15;26.50
35649;BME280;21768;48.562;13.414;2023-05-21T13:22:39;96999.81;;;30.23;26.91
35649;BME280;21768;48.562;13.414;2023-05-21T13:25:09;96998.09;;;30.22;26.55